sensor_id;sensor_type;location;lat;lon;timestamp;P1;durP1;ratioP1;P2;durP2;ratioP2
2462;SDS011;1243;54.298;10.172;2023-03-11T00:01:48;10.43;;;8.57;;
2462;SDS011;1243;54.298;10.172;2023-03-11T00:04:14;8.13;;;6.95;;
2462;SDS011;1243;54.298;10.172;2023-03-11T00:06:40;9.53;;;7.40;;
2462;SDS011;1243;54.298;10.172;2023-03-11T00:09:06;9.43;;;7.30;;
2462;SDS011;1243;54.298;10.172;2023-03-11T00:11:32;9.63;;;8.13;;
2462;SDS011;1243;54.298;10.172;2023-03-11T00:13:57;8.93;;;7.40;;
2462;SDS011;1243;54.298;10.172;2023-03-11T00:16:23;9.97;;;6.70;;
2462;SDS011;1243;54.298;10.172;2023-03-11T00:18:49;8.97;;;7.10;;
2462;SDS011;1243;54.298;10.172;2023-03-11T00:21:16;8.17;;;7.43;;
2462;SDS011;1243;54.298;10.172;2023-03-11T00:23:43;12.83;;;7.40;;
2462;SDS011;1243;54.298;10.172;2023-03-11T00:26:09;7.40;;;6.70;;
2462;SDS011;1243;54.298;10.172;2023-03-11T00:28:34;12.93;;;7.63;;
2462;SDS011;1243;54.298;10.172;2023-03-11T00:31:00;7.70;;;7.00;;
2462;SDS011;1243;54.298;10.172;2023-03-11T00:33:27;8.33;;;7.17;;
2462;SDS011;1243;54.298;10.172;2023-03-11T00:35:52;8.00;;;6.90;;
2462;SDS011;1243;54.298;10.172;2023-03-11T00:38:18;10.53;;;7.70;;
2462;SDS011;1243;54.298;10.172;2023-03-11T00:40:45;7.90;;;7.13;;
2462;SDS011;1243;54.298;10.172;2023-03-11T00:43:11;10.87;;;7.60;;
2462;SDS011;1243;54.298;10.172;2023-03-11T00:45:38;9.70;;;7.13;;
2462;SDS011;1243;54.298;10.172;2023-03-11T00:48:04;7.55;;;6.88;;
2462;SDS011;1243;54.298;10.172;2023-03-11T00:50:32;8.70;;;7.57;;
2462;SDS011;1243;54.298;10.172;2023-03-11T00:52:59;7.63;;;6.82;;
2462;SDS011;1243;54.298;10.172;2023-03-11T00:55:26;13.05;;;7.15;;
2462;SDS011;1243;54.298;10.172;2023-03-11T00:57:57;9.13;;;7.40;;
2462;SDS011;1243;54.298;10.172;2023-03-11T01:00:26;6.70;;;6.10;;
2462;SDS011;1243;54.298;10.172;2023-03-11T01:02:53;9.32;;;7.13;;
2462;SDS011;1243;54.298;10.172;2023-03-11T01:05:20;8.32;;;6.53;;
2462;SDS011;1243;54.298;10.172;2023-03-11T01:07:48;6.88;;;6.28;;
2462;SDS011;1243;54.298;10.172;2023-03-11T01:10:15;10.67;;;6.73;;
2462;SDS011;1243;54.298;10.172;2023-03-11T01:12:41;7.60;;;6.90;;
2462;SDS011;1243;54.298;10.172;2023-03-11T01:15:08;6.45;;;5.90;;
2462;SDS011;1243;54.298;10.172;2023-03-11T01:17:38;9.60;;;8.20;;
2462;SDS011;1243;54.298;10.172;2023-03-11T01:20:04;8.70;;;7.90;;
2462;SDS011;1243;54.298;10.172;2023-03-11T01:22:33;8.30;;;7.35;;
2462;SDS011;1243;54.298;10.172;2023-03-11T01:24:58;8.17;;;7.47;;
2462;SDS011;1243;54.298;10.172;2023-03-11T01:27:24;8.60;;;7.63;;
2462;SDS011;1243;54.298;10.172;2023-03-11T01:29:50;9.50;;;8.30;;
2462;SDS011;1243;54.298;10.172;2023-03-11T01:32:15;7.87;;;7.07;;
2462;SDS011;1243;54.298;10.172;2023-03-11T01:34:41;8.10;;;7.40;;
2462;SDS011;1243;54.298;10.172;2023-03-11T01:37:06;10.07;;;9.00;;
2462;SDS011;1243;54.298;10.172;2023-03-11T01:39:32;7.63;;;6.83;;
2462;SDS011;1243;54.298;10.172;2023-03-11T01:41:58;9.07;;;6.90;;
2462;SDS011;1243;54.298;10.172;2023-03-11T01:44:24;9.13;;;8.00;;
2462;SDS011;1243;54.298;10.172;2023-03-11T01:49:19;11.33;;;7.83;;
2462;SDS011;1243;54.298;10.172;2023-03-11T01:51:46;9.77;;;8.50;;
2462;SDS011;1243;54.298;10.172;2023-03-11T01:54:18;9.53;;;8.63;;
2462;SDS011;1243;54.298;10.172;2023-03-11T01:56:59;9.93;;;8.80;;
2462;SDS011;1243;54.298;10.172;2023-03-11T01:59:30;9.05;;;8.15;;
2462;SDS011;1243;54.298;10.172;2023-03-11T02:02:01;20.00;;;9.00;;
2462;SDS011;1243;54.298;10.172;2023-03-11T02:04:33;8.95;;;8.05;;
2462;SDS011;1243;54.298;10.172;2023-03-11T02:07:00;9.23;;;8.00;;
2462;SDS011;1243;54.298;10.172;2023-03-11T02:09:27;9.77;;;8.10;;
2462;SDS011;1243;54.298;10.172;2023-03-11T02:11:53;14.63;;;9.60;;
2462;SDS011;1243;54.298;10.172;2023-03-11T02:14:19;11.85;;;9.10;;
2462;SDS011;1243;54.298;10.172;2023-03-11T02:16:45;11.93;;;9.13;;
2462;SDS011;1243;54.298;10.172;2023-03-11T02:19:16;14.97;;;8.73;;
2462;SDS011;1243;54.298;10.172;2023-03-11T02:21:44;10.38;;;8.40;;
2462;SDS011;1243;54.298;10.172;2023-03-11T02:27:02;11.07;;;9.70;;
2462;SDS011;1243;54.298;10.172;2023-03-11T02:29:32;12.67;;;9.83;;
2462;SDS011;1243;54.298;10.172;2023-03-11T02:31:58;11.63;;;9.13;;
2462;SDS011;1243;54.298;10.172;2023-03-11T02:34:30;11.37;;;9.37;;
2462;SDS011;1243;54.298;10.172;2023-03-11T02:36:57;12.45;;;10.82;;
2462;SDS011;1243;54.298;10.172;2023-03-11T02:39:42;13.05;;;9.40;;
2462;SDS011;1243;54.298;10.172;2023-03-11T02:45:09;13.45;;;9.82;;
2462;SDS011;1243;54.298;10.172;2023-03-11T02:47:37;13.75;;;9.90;;
2462;SDS011;1243;54.298;10.172;2023-03-11T02:50:05;12.40;;;9.63;;
2462;SDS011;1243;54.298;10.172;2023-03-11T02:52:33;13.27;;;10.68;;
2462;SDS011;1243;54.298;10.172;2023-03-11T02:55:00;15.05;;;9.45;;
2462;SDS011;1243;54.298;10.172;2023-03-11T02:57:26;14.90;;;10.53;;
2462;SDS011;1243;54.298;10.172;2023-03-11T02:59:52;12.07;;;10.13;;
2462;SDS011;1243;54.298;10.172;2023-03-11T03:02:18;9.50;;;7.77;;
2462;SDS011;1243;54.298;10.172;2023-03-11T03:04:44;18.58;;;10.07;;
2462;SDS011;1243;54.298;10.172;2023-03-11T03:07:10;10.43;;;9.20;;
2462;SDS011;1243;54.298;10.172;2023-03-11T03:09:36;15.13;;;10.20;;
2462;SDS011;1243;54.298;10.172;2023-03-11T03:12:02;13.40;;;9.87;;
2462;SDS011;1243;54.298;10.172;2023-03-11T03:14:29;14.35;;;10.90;;
2462;SDS011;1243;54.298;10.172;2023-03-11T03:16:55;9.88;;;8.85;;
2462;SDS011;1243;54.298;10.172;2023-03-11T03:19:21;10.45;;;8.95;;
2462;SDS011;1243;54.298;10.172;2023-03-11T03:21:47;12.10;;;9.87;;
2462;SDS011;1243;54.298;10.172;2023-03-11T03:24:13;13.07;;;8.93;;
2462;SDS011;1243;54.298;10.172;2023-03-11T03:26:39;15.40;;;9.80;;
2462;SDS011;1243;54.298;10.172;2023-03-11T03:29:05;11.20;;;9.23;;
2462;SDS011;1243;54.298;10.172;2023-03-11T03:31:31;11.90;;;9.60;;
2462;SDS011;1243;54.298;10.172;2023-03-11T03:33:56;11.63;;;10.40;;
2462;SDS011;1243;54.298;10.172;2023-03-11T03:36:22;11.80;;;8.83;;
2462;SDS011;1243;54.298;10.172;2023-03-11T03:38:51;11.90;;;10.30;;
2462;SDS011;1243;54.298;10.172;2023-03-11T03:41:18;12.00;;;9.27;;
2462;SDS011;1243;54.298;10.172;2023-03-11T03:43:43;13.23;;;9.47;;
2462;SDS011;1243;54.298;10.172;2023-03-11T03:46:09;10.53;;;8.70;;
2462;SDS011;1243;54.298;10.172;2023-03-11T03:48:35;13.00;;;8.83;;
2462;SDS011;1243;54.298;10.172;2023-03-11T03:51:02;14.00;;;9.57;;
2462;SDS011;1243;54.298;10.172;2023-03-11T03:53:34;10.77;;;8.20;;
2462;SDS011;1243;54.298;10.172;2023-03-11T03:56:04;11.52;;;8.77;;
2462;SDS011;1243;54.298;10.172;2023-03-11T03:58:31;13.57;;;9.45;;
2462;SDS011;1243;54.298;10.172;2023-03-11T04:00:58;16.55;;;9.98;;
2462;SDS011;1243;54.298;10.172;2023-03-11T04:03:24;13.98;;;9.65;;
2462;SDS011;1243;54.298;10.172;2023-03-11T04:05:51;10.02;;;8.88;;
2462;SDS011;1243;54.298;10.172;2023-03-11T04:08:16;15.13;;;10.63;;
2462;SDS011;1243;54.298;10.172;2023-03-11T04:10:43;11.20;;;8.93;;
2462;SDS011;1243;54.298;10.172;2023-03-11T04:13:09;11.63;;;9.02;;
2462;SDS011;1243;54.298;10.172;2023-03-11T04:15:36;11.60;;;9.00;;
2462;SDS011;1243;54.298;10.172;2023-03-11T04:18:03;9.52;;;8.40;;
2462;SDS011;1243;54.298;10.172;2023-03-11T04:20:29;11.55;;;8.68;;
2462;SDS011;1243;54.298;10.172;2023-03-11T04:22:55;11.80;;;8.37;;
2462;SDS011;1243;54.298;10.172;2023-03-11T04:25:21;11.87;;;9.17;;
2462;SDS011;1243;54.298;10.172;2023-03-11T04:27:47;9.97;;;8.87;;
2462;SDS011;1243;54.298;10.172;2023-03-11T04:30:14;12.88;;;8.27;;
2462;SDS011;1243;54.298;10.172;2023-03-11T04:32:40;10.65;;;9.45;;
2462;SDS011;1243;54.298;10.172;2023-03-11T04:35:06;9.70;;;8.50;;
2462;SDS011;1243;54.298;10.172;2023-03-11T04:37:32;11.55;;;9.90;;
2462;SDS011;1243;54.298;10.172;2023-03-11T04:39:57;11.43;;;8.60;;
2462;SDS011;1243;54.298;10.172;2023-03-11T04:42:23;10.23;;;8.67;;
2462;SDS011;1243;54.298;10.172;2023-03-11T04:44:49;10.67;;;8.07;;
2462;SDS011;1243;54.298;10.172;2023-03-11T04:47:16;13.40;;;8.90;;
2462;SDS011;1243;54.298;10.172;2023-03-11T04:49:41;11.00;;;8.00;;
2462;SDS011;1243;54.298;10.172;2023-03-11T04:52:07;10.90;;;8.30;;
2462;SDS011;1243;54.298;10.172;2023-03-11T04:54:33;12.60;;;8.60;;
2462;SDS011;1243;54.298;10.172;2023-03-11T04:56:58;11.63;;;8.60;;
2462;SDS011;1243;54.298;10.172;2023-03-11T04:59:24;13.70;;;8.33;;
2462;SDS011;1243;54.298;10.172;2023-03-11T05:01:51;10.02;;;8.10;;
2462;SDS011;1243;54.298;10.172;2023-03-11T05:04:17;11.45;;;8.40;;
2462;SDS011;1243;54.298;10.172;2023-03-11T05:06:43;11.27;;;7.60;;
2462;SDS011;1243;54.298;10.172;2023-03-11T05:09:08;8.43;;;7.60;;
2462;SDS011;1243;54.298;10.172;2023-03-11T05:11:34;10.10;;;7.80;;
2462;SDS011;1243;54.298;10.172;2023-03-11T05:14:00;8.77;;;7.90;;
2462;SDS011;1243;54.298;10.172;2023-03-11T05:16:25;16.00;;;8.73;;
2462;SDS011;1243;54.298;10.172;2023-03-11T05:18:51;14.30;;;9.83;;
2462;SDS011;1243;54.298;10.172;2023-03-11T05:21:17;9.40;;;7.00;;
2462;SDS011;1243;54.298;10.172;2023-03-11T05:23:42;12.40;;;8.63;;
2462;SDS011;1243;54.298;10.172;2023-03-11T05:26:09;10.35;;;7.40;;
2462;SDS011;1243;54.298;10.172;2023-03-11T05:28:35;13.50;;;8.40;;
2462;SDS011;1243;54.298;10.172;2023-03-11T05:31:01;11.27;;;8.90;;
2462;SDS011;1243;54.298;10.172;2023-03-11T05:33:26;10.00;;;8.07;;
2462;SDS011;1243;54.298;10.172;2023-03-11T05:36:08;11.52;;;7.95;;
2462;SDS011;1243;54.298;10.172;2023-03-11T05:38:35;12.73;;;9.02;;
2462;SDS011;1243;54.298;10.172;2023-03-11T05:41:01;11.73;;;8.40;;
2462;SDS011;1243;54.298;10.172;2023-03-11T05:43:27;12.20;;;7.77;;
2462;SDS011;1243;54.298;10.172;2023-03-11T05:45:52;8.67;;;7.23;;
2462;SDS011;1243;54.298;10.172;2023-03-11T05:48:18;10.23;;;7.70;;
2462;SDS011;1243;54.298;10.172;2023-03-11T05:50:44;10.60;;;8.17;;
2462;SDS011;1243;54.298;10.172;2023-03-11T05:53:09;15.50;;;7.70;;
2462;SDS011;1243;54.298;10.172;2023-03-11T05:55:35;14.30;;;9.03;;
2462;SDS011;1243;54.298;10.172;2023-03-11T05:58:01;14.37;;;8.07;;
2462;SDS011;1243;54.298;10.172;2023-03-11T06:00:26;11.00;;;8.10;;
2462;SDS011;1243;54.298;10.172;2023-03-11T06:02:53;12.60;;;8.70;;
2462;SDS011;1243;54.298;10.172;2023-03-11T06:05:19;8.75;;;6.88;;
2462;SDS011;1243;54.298;10.172;2023-03-11T06:07:45;10.30;;;7.87;;
2462;SDS011;1243;54.298;10.172;2023-03-11T06:10:11;11.48;;;7.75;;
2462;SDS011;1243;54.298;10.172;2023-03-11T06:12:37;10.30;;;7.65;;
2462;SDS011;1243;54.298;10.172;2023-03-11T06:15:04;10.07;;;7.87;;
2462;SDS011;1243;54.298;10.172;2023-03-11T06:17:31;11.55;;;8.77;;
2462;SDS011;1243;54.298;10.172;2023-03-11T06:19:57;12.13;;;8.00;;
2462;SDS011;1243;54.298;10.172;2023-03-11T06:22:22;9.93;;;7.87;;
2462;SDS011;1243;54.298;10.172;2023-03-11T06:24:48;9.47;;;7.87;;
2462;SDS011;1243;54.298;10.172;2023-03-11T06:27:14;9.50;;;6.67;;
2462;SDS011;1243;54.298;10.172;2023-03-11T06:29:39;8.53;;;7.80;;
2462;SDS011;1243;54.298;10.172;2023-03-11T06:32:05;8.67;;;7.10;;
2462;SDS011;1243;54.298;10.172;2023-03-11T06:34:31;9.63;;;7.60;;
2462;SDS011;1243;54.298;10.172;2023-03-11T06:36:57;11.90;;;7.90;;
2462;SDS011;1243;54.298;10.172;2023-03-11T06:39:24;11.43;;;8.93;;
2462;SDS011;1243;54.298;10.172;2023-03-11T06:41:49;10.33;;;8.53;;
2462;SDS011;1243;54.298;10.172;2023-03-11T06:44:15;6.87;;;6.10;;
2462;SDS011;1243;54.298;10.172;2023-03-11T06:46:41;11.03;;;7.47;;
2462;SDS011;1243;54.298;10.172;2023-03-11T06:49:07;13.20;;;8.23;;
2462;SDS011;1243;54.298;10.172;2023-03-11T06:51:32;13.27;;;8.63;;
2462;SDS011;1243;54.298;10.172;2023-03-11T06:53:59;11.18;;;7.60;;
2462;SDS011;1243;54.298;10.172;2023-03-11T06:56:24;10.87;;;8.23;;
2462;SDS011;1243;54.298;10.172;2023-03-11T06:58:50;9.83;;;6.97;;
2462;SDS011;1243;54.298;10.172;2023-03-11T07:01:18;8.70;;;6.90;;
2462;SDS011;1243;54.298;10.172;2023-03-11T07:03:46;10.60;;;6.68;;
2462;SDS011;1243;54.298;10.172;2023-03-11T07:06:13;11.43;;;7.40;;
2462;SDS011;1243;54.298;10.172;2023-03-11T07:08:40;9.52;;;6.70;;
2462;SDS011;1243;54.298;10.172;2023-03-11T07:11:11;7.40;;;6.60;;
2462;SDS011;1243;54.298;10.172;2023-03-11T07:13:39;9.70;;;6.47;;
2462;SDS011;1243;54.298;10.172;2023-03-11T07:16:08;7.27;;;5.87;;
2462;SDS011;1243;54.298;10.172;2023-03-11T07:18:37;10.73;;;6.20;;
2462;SDS011;1243;54.298;10.172;2023-03-11T07:21:04;9.17;;;5.83;;
2462;SDS011;1243;54.298;10.172;2023-03-11T07:23:31;6.32;;;5.32;;
2462;SDS011;1243;54.298;10.172;2023-03-11T07:25:57;10.45;;;8.70;;
2462;SDS011;1243;54.298;10.172;2023-03-11T07:28:23;5.88;;;5.35;;
2462;SDS011;1243;54.298;10.172;2023-03-11T07:30:51;8.32;;;5.50;;
2462;SDS011;1243;54.298;10.172;2023-03-11T07:33:17;7.00;;;5.90;;
2462;SDS011;1243;54.298;10.172;2023-03-11T07:35:43;12.68;;;6.38;;
2462;SDS011;1243;54.298;10.172;2023-03-11T07:38:09;5.60;;;5.17;;
2462;SDS011;1243;54.298;10.172;2023-03-11T07:40:35;6.20;;;5.60;;
2462;SDS011;1243;54.298;10.172;2023-03-11T07:43:00;6.80;;;5.60;;
2462;SDS011;1243;54.298;10.172;2023-03-11T07:45:26;5.07;;;4.17;;
2462;SDS011;1243;54.298;10.172;2023-03-11T07:47:52;5.57;;;4.77;;
2462;SDS011;1243;54.298;10.172;2023-03-11T07:50:17;6.90;;;6.20;;
2462;SDS011;1243;54.298;10.172;2023-03-11T07:52:46;6.82;;;4.85;;
2462;SDS011;1243;54.298;10.172;2023-03-11T07:55:12;5.53;;;4.97;;
2462;SDS011;1243;54.298;10.172;2023-03-11T07:57:38;5.68;;;5.15;;
2462;SDS011;1243;54.298;10.172;2023-03-11T08:00:04;5.90;;;4.40;;
2462;SDS011;1243;54.298;10.172;2023-03-11T08:02:30;6.75;;;5.10;;
2462;SDS011;1243;54.298;10.172;2023-03-11T08:04:56;4.73;;;4.40;;
2462;SDS011;1243;54.298;10.172;2023-03-11T08:07:22;6.63;;;4.53;;
2462;SDS011;1243;54.298;10.172;2023-03-11T08:09:47;5.07;;;4.60;;
2462;SDS011;1243;54.298;10.172;2023-03-11T08:12:14;5.97;;;4.80;;
2462;SDS011;1243;54.298;10.172;2023-03-11T08:14:40;5.10;;;4.40;;
2462;SDS011;1243;54.298;10.172;2023-03-11T08:17:07;4.67;;;4.20;;
2462;SDS011;1243;54.298;10.172;2023-03-11T08:19:34;6.75;;;4.70;;
2462;SDS011;1243;54.298;10.172;2023-03-11T08:22:00;4.37;;;3.97;;
2462;SDS011;1243;54.298;10.172;2023-03-11T08:24:27;5.17;;;4.40;;
2462;SDS011;1243;54.298;10.172;2023-03-11T08:26:53;3.90;;;3.60;;
2462;SDS011;1243;54.298;10.172;2023-03-11T08:29:19;3.77;;;3.47;;
2462;SDS011;1243;54.298;10.172;2023-03-11T08:31:45;4.03;;;3.30;;
2462;SDS011;1243;54.298;10.172;2023-03-11T08:34:11;2.70;;;2.60;;
2462;SDS011;1243;54.298;10.172;2023-03-11T08:36:37;4.30;;;3.70;;
2462;SDS011;1243;54.298;10.172;2023-03-11T08:39:03;4.10;;;3.60;;
2462;SDS011;1243;54.298;10.172;2023-03-11T08:41:29;5.67;;;3.50;;
2462;SDS011;1243;54.298;10.172;2023-03-11T08:43:54;4.10;;;3.20;;
2462;SDS011;1243;54.298;10.172;2023-03-11T08:48:50;3.00;;;2.80;;
2462;SDS011;1243;54.298;10.172;2023-03-11T08:51:15;2.70;;;2.50;;
2462;SDS011;1243;54.298;10.172;2023-03-11T08:53:41;3.33;;;3.13;;
2462;SDS011;1243;54.298;10.172;2023-03-11T08:56:07;3.70;;;3.40;;
2462;SDS011;1243;54.298;10.172;2023-03-11T08:58:33;3.90;;;3.70;;
2462;SDS011;1243;54.298;10.172;2023-03-11T09:00:59;3.30;;;3.10;;
2462;SDS011;1243;54.298;10.172;2023-03-11T09:03:25;3.33;;;3.03;;
2462;SDS011;1243;54.298;10.172;2023-03-11T09:05:57;3.87;;;3.37;;
2462;SDS011;1243;54.298;10.172;2023-03-11T09:08:24;3.40;;;3.10;;
2462;SDS011;1243;54.298;10.172;2023-03-11T09:10:50;3.00;;;2.80;;
2462;SDS011;1243;54.298;10.172;2023-03-11T09:13:15;8.33;;;3.30;;
2462;SDS011;1243;54.298;10.172;2023-03-11T09:15:41;3.23;;;2.97;;
2462;SDS011;1243;54.298;10.172;2023-03-11T09:18:09;2.90;;;2.70;;
2462;SDS011;1243;54.298;10.172;2023-03-11T09:20:39;4.17;;;3.30;;
2462;SDS011;1243;54.298;10.172;2023-03-11T09:23:05;6.10;;;2.80;;
2462;SDS011;1243;54.298;10.172;2023-03-11T09:25:31;3.03;;;2.83;;
2462;SDS011;1243;54.298;10.172;2023-03-11T09:27:57;3.67;;;3.37;;
2462;SDS011;1243;54.298;10.172;2023-03-11T09:30:22;2.90;;;2.70;;
2462;SDS011;1243;54.298;10.172;2023-03-11T09:32:48;3.83;;;2.83;;
2462;SDS011;1243;54.298;10.172;2023-03-11T09:35:14;3.30;;;3.10;;
2462;SDS011;1243;54.298;10.172;2023-03-11T09:37:40;3.17;;;2.87;;
2462;SDS011;1243;54.298;10.172;2023-03-11T09:40:05;2.30;;;2.20;;
2462;SDS011;1243;54.298;10.172;2023-03-11T09:42:40;6.40;;;2.57;;
2462;SDS011;1243;54.298;10.172;2023-03-11T09:45:23;5.30;;;2.77;;
2462;SDS011;1243;54.298;10.172;2023-03-11T09:56:02;3.03;;;2.77;;
2462;SDS011;1243;54.298;10.172;2023-03-11T10:01:33;2.80;;;2.53;;
2462;SDS011;1243;54.298;10.172;2023-03-11T10:06:54;3.13;;;2.83;;
2462;SDS011;1243;54.298;10.172;2023-03-11T10:28:42;2.50;;;2.30;;
2462;SDS011;1243;54.298;10.172;2023-03-11T10:37:19;4.67;;;3.80;;
2462;SDS011;1243;54.298;10.172;2023-03-11T10:39:50;5.63;;;2.17;;
2462;SDS011;1243;54.298;10.172;2023-03-11T10:42:24;3.47;;;2.07;;
2462;SDS011;1243;54.298;10.172;2023-03-11T10:44:53;2.60;;;2.30;;
2462;SDS011;1243;54.298;10.172;2023-03-11T10:47:19;1.77;;;1.67;;
2462;SDS011;1243;54.298;10.172;2023-03-11T10:49:47;7.23;;;2.30;;
2462;SDS011;1243;54.298;10.172;2023-03-11T10:52:13;2.30;;;1.80;;
2462;SDS011;1243;54.298;10.172;2023-03-11T10:54:41;2.90;;;1.73;;
2462;SDS011;1243;54.298;10.172;2023-03-11T10:59:58;1.80;;;1.70;;
2462;SDS011;1243;54.298;10.172;2023-03-11T11:02:30;3.00;;;2.40;;
2462;SDS011;1243;54.298;10.172;2023-03-11T11:07:36;3.33;;;3.03;;
2462;SDS011;1243;54.298;10.172;2023-03-11T11:10:12;6.43;;;2.33;;
2462;SDS011;1243;54.298;10.172;2023-03-11T11:13:00;9.60;;;2.77;;
2462;SDS011;1243;54.298;10.172;2023-03-11T11:15:26;4.10;;;2.10;;
2462;SDS011;1243;54.298;10.172;2023-03-11T11:18:18;3.00;;;2.70;;
2462;SDS011;1243;54.298;10.172;2023-03-11T11:20:58;3.70;;;2.13;;
2462;SDS011;1243;54.298;10.172;2023-03-11T11:26:33;2.20;;;2.10;;
2462;SDS011;1243;54.298;10.172;2023-03-11T11:31:39;2.50;;;1.80;;
2462;SDS011;1243;54.298;10.172;2023-03-11T11:34:40;2.77;;;2.20;;
2462;SDS011;1243;54.298;10.172;2023-03-11T11:37:03;2.43;;;2.20;;
2462;SDS011;1243;54.298;10.172;2023-03-11T11:39:32;3.90;;;2.60;;
2462;SDS011;1243;54.298;10.172;2023-03-11T11:42:09;2.00;;;1.80;;
2462;SDS011;1243;54.298;10.172;2023-03-11T11:44:37;3.13;;;2.73;;
2462;SDS011;1243;54.298;10.172;2023-03-11T11:50:12;2.13;;;1.90;;
2462;SDS011;1243;54.298;10.172;2023-03-11T11:52:52;1.50;;;1.40;;
2462;SDS011;1243;54.298;10.172;2023-03-11T11:55:25;5.47;;;1.27;;
2462;SDS011;1243;54.298;10.172;2023-03-11T11:57:53;1.47;;;1.37;;
2462;SDS011;1243;54.298;10.172;2023-03-11T12:00:21;1.50;;;1.40;;
2462;SDS011;1243;54.298;10.172;2023-03-11T12:03:20;1.87;;;1.13;;
2462;SDS011;1243;54.298;10.172;2023-03-11T12:06:00;1.53;;;1.43;;
2462;SDS011;1243;54.298;10.172;2023-03-11T12:11:28;2.90;;;1.93;;
2462;SDS011;1243;54.298;10.172;2023-03-11T12:14:20;2.37;;;1.60;;
2462;SDS011;1243;54.298;10.172;2023-03-11T12:16:56;1.27;;;1.17;;
2462;SDS011;1243;54.298;10.172;2023-03-11T12:19:32;2.73;;;1.50;;
2462;SDS011;1243;54.298;10.172;2023-03-11T12:24:53;3.20;;;1.50;;
2462;SDS011;1243;54.298;10.172;2023-03-11T12:27:43;2.47;;;1.50;;
2462;SDS011;1243;54.298;10.172;2023-03-11T12:30:17;3.63;;;1.73;;
2462;SDS011;1243;54.298;10.172;2023-03-11T12:32:50;3.73;;;1.67;;
2462;SDS011;1243;54.298;10.172;2023-03-11T12:35:27;1.77;;;1.50;;
2462;SDS011;1243;54.298;10.172;2023-03-11T12:45:49;1.50;;;1.23;;
2462;SDS011;1243;54.298;10.172;2023-03-11T12:50:51;1.30;;;1.00;;
2462;SDS011;1243;54.298;10.172;2023-03-11T12:53:18;1.93;;;1.50;;
2462;SDS011;1243;54.298;10.172;2023-03-11T12:56:02;5.30;;;1.80;;
2462;SDS011;1243;54.298;10.172;2023-03-11T13:09:53;1.87;;;1.77;;
2462;SDS011;1243;54.298;10.172;2023-03-11T13:12:40;3.10;;;2.90;;
2462;SDS011;1243;54.298;10.172;2023-03-11T13:28:26;2.37;;;2.17;;
2462;SDS011;1243;54.298;10.172;2023-03-11T13:42:30;2.70;;;2.30;;
2462;SDS011;1243;54.298;10.172;2023-03-11T13:45:00;5.30;;;2.90;;
2462;SDS011;1243;54.298;10.172;2023-03-11T13:47:29;3.23;;;1.80;;
2462;SDS011;1243;54.298;10.172;2023-03-11T13:50:00;3.07;;;2.23;;
2462;SDS011;1243;54.298;10.172;2023-03-11T13:52:34;2.40;;;2.20;;
2462;SDS011;1243;54.298;10.172;2023-03-11T13:55:05;6.77;;;1.70;;
2462;SDS011;1243;54.298;10.172;2023-03-11T13:57:39;2.27;;;1.80;;
2462;SDS011;1243;54.298;10.172;2023-03-11T14:00:18;2.60;;;1.60;;
2462;SDS011;1243;54.298;10.172;2023-03-11T14:02:49;2.97;;;2.10;;
2462;SDS011;1243;54.298;10.172;2023-03-11T14:05:23;5.43;;;3.20;;
2462;SDS011;1243;54.298;10.172;2023-03-11T14:07:51;1.90;;;1.80;;
2462;SDS011;1243;54.298;10.172;2023-03-11T14:10:22;4.40;;;2.47;;
2462;SDS011;1243;54.298;10.172;2023-03-11T14:15:42;2.27;;;2.17;;
2462;SDS011;1243;54.298;10.172;2023-03-11T14:18:25;2.40;;;2.20;;
2462;SDS011;1243;54.298;10.172;2023-03-11T14:20:53;5.00;;;3.23;;
2462;SDS011;1243;54.298;10.172;2023-03-11T14:23:27;2.10;;;1.60;;
2462;SDS011;1243;54.298;10.172;2023-03-11T14:28:45;15.93;;;7.27;;
2462;SDS011;1243;54.298;10.172;2023-03-11T14:31:27;15.33;;;7.40;;
2462;SDS011;1243;54.298;10.172;2023-03-11T14:33:54;7.73;;;5.10;;
2462;SDS011;1243;54.298;10.172;2023-03-11T14:36:22;2.37;;;2.27;;
2462;SDS011;1243;54.298;10.172;2023-03-11T14:38:48;3.40;;;2.10;;
2462;SDS011;1243;54.298;10.172;2023-03-11T14:41:14;2.03;;;1.93;;
2462;SDS011;1243;54.298;10.172;2023-03-11T14:43:41;2.80;;;2.20;;
2462;SDS011;1243;54.298;10.172;2023-03-11T14:46:17;2.90;;;2.57;;
2462;SDS011;1243;54.298;10.172;2023-03-11T14:48:46;9.83;;;5.33;;
2462;SDS011;1243;54.298;10.172;2023-03-11T14:51:14;19.30;;;2.67;;
2462;SDS011;1243;54.298;10.172;2023-03-11T14:56:50;3.00;;;2.40;;
2462;SDS011;1243;54.298;10.172;2023-03-11T14:59:36;5.00;;;1.90;;
2462;SDS011;1243;54.298;10.172;2023-03-11T15:02:27;3.87;;;2.10;;
2462;SDS011;1243;54.298;10.172;2023-03-11T15:04:49;3.00;;;1.97;;
2462;SDS011;1243;54.298;10.172;2023-03-11T15:07:17;3.10;;;1.70;;
2462;SDS011;1243;54.298;10.172;2023-03-11T15:09:44;2.23;;;1.80;;
2462;SDS011;1243;54.298;10.172;2023-03-11T15:12:28;4.30;;;1.73;;
2462;SDS011;1243;54.298;10.172;2023-03-11T15:14:56;2.17;;;1.70;;
2462;SDS011;1243;54.298;10.172;2023-03-11T15:17:23;1.77;;;1.63;;
2462;SDS011;1243;54.298;10.172;2023-03-11T15:19:52;6.67;;;2.37;;
2462;SDS011;1243;54.298;10.172;2023-03-11T15:22:28;7.00;;;1.80;;
2462;SDS011;1243;54.298;10.172;2023-03-11T15:24:55;2.63;;;2.10;;
2462;SDS011;1243;54.298;10.172;2023-03-11T15:27:27;8.57;;;2.33;;
2462;SDS011;1243;54.298;10.172;2023-03-11T15:29:58;2.27;;;2.07;;
2462;SDS011;1243;54.298;10.172;2023-03-11T15:32:36;5.00;;;2.60;;
2462;SDS011;1243;54.298;10.172;2023-03-11T15:37:32;2.80;;;2.17;;
2462;SDS011;1243;54.298;10.172;2023-03-11T15:40:20;4.33;;;2.60;;
2462;SDS011;1243;54.298;10.172;2023-03-11T15:42:45;6.10;;;4.47;;
2462;SDS011;1243;54.298;10.172;2023-03-11T15:45:14;2.60;;;2.40;;
2462;SDS011;1243;54.298;10.172;2023-03-11T15:47:42;2.60;;;2.40;;
2462;SDS011;1243;54.298;10.172;2023-03-11T15:50:18;3.00;;;2.73;;
2462;SDS011;1243;54.298;10.172;2023-03-11T15:52:47;3.00;;;2.70;;
2462;SDS011;1243;54.298;10.172;2023-03-11T15:55:14;3.27;;;2.60;;
2462;SDS011;1243;54.298;10.172;2023-03-11T15:57:39;3.73;;;2.43;;
2462;SDS011;1243;54.298;10.172;2023-03-11T16:00:06;3.47;;;3.17;;
2462;SDS011;1243;54.298;10.172;2023-03-11T16:02:46;4.63;;;2.73;;
2462;SDS011;1243;54.298;10.172;2023-03-11T16:05:17;8.00;;;2.53;;
2462;SDS011;1243;54.298;10.172;2023-03-11T16:07:44;5.80;;;2.97;;
2462;SDS011;1243;54.298;10.172;2023-03-11T16:10:11;8.70;;;2.80;;
2462;SDS011;1243;54.298;10.172;2023-03-11T16:12:38;2.93;;;2.30;;
2462;SDS011;1243;54.298;10.172;2023-03-11T16:15:09;4.70;;;2.57;;
2462;SDS011;1243;54.298;10.172;2023-03-11T16:17:53;5.00;;;2.93;;
2462;SDS011;1243;54.298;10.172;2023-03-11T16:20:21;3.30;;;2.60;;
2462;SDS011;1243;54.298;10.172;2023-03-11T16:22:48;3.10;;;2.90;;
2462;SDS011;1243;54.298;10.172;2023-03-11T16:25:18;4.13;;;2.13;;
2462;SDS011;1243;54.298;10.172;2023-03-11T16:27:48;5.60;;;3.20;;
2462;SDS011;1243;54.298;10.172;2023-03-11T16:30:15;2.33;;;2.13;;
2462;SDS011;1243;54.298;10.172;2023-03-11T16:32:42;4.10;;;2.83;;
2462;SDS011;1243;54.298;10.172;2023-03-11T16:35:08;3.60;;;2.50;;
2462;SDS011;1243;54.298;10.172;2023-03-11T16:37:35;4.80;;;2.37;;
2462;SDS011;1243;54.298;10.172;2023-03-11T16:40:00;5.63;;;2.90;;
2462;SDS011;1243;54.298;10.172;2023-03-11T16:42:26;5.10;;;2.83;;
2462;SDS011;1243;54.298;10.172;2023-03-11T16:44:52;4.33;;;2.57;;
2462;SDS011;1243;54.298;10.172;2023-03-11T16:47:17;9.20;;;2.33;;
2462;SDS011;1243;54.298;10.172;2023-03-11T16:49:43;2.70;;;2.50;;
2462;SDS011;1243;54.298;10.172;2023-03-11T16:52:09;5.30;;;2.77;;
2462;SDS011;1243;54.298;10.172;2023-03-11T16:54:34;4.03;;;2.53;;
2462;SDS011;1243;54.298;10.172;2023-03-11T16:57:00;3.73;;;2.30;;
2462;SDS011;1243;54.298;10.172;2023-03-11T16:59:27;5.07;;;2.43;;
2462;SDS011;1243;54.298;10.172;2023-03-11T17:01:52;2.43;;;2.00;;
2462;SDS011;1243;54.298;10.172;2023-03-11T17:04:18;4.80;;;2.10;;
2462;SDS011;1243;54.298;10.172;2023-03-11T17:06:44;7.20;;;2.93;;
2462;SDS011;1243;54.298;10.172;2023-03-11T17:09:09;3.73;;;2.40;;
2462;SDS011;1243;54.298;10.172;2023-03-11T17:11:35;3.07;;;2.10;;
2462;SDS011;1243;54.298;10.172;2023-03-11T17:14:01;2.60;;;2.40;;